createdAt,value
2022-12-06T00:05:16.261Z,10.77
2022-12-06T00:10:36.366Z,9.70
2022-12-06T00:16:01.419Z,10.17
2022-12-06T00:21:27.647Z,10.70
2022-12-06T00:26:42.833Z,10.10
2022-12-06T00:31:55.532Z,10.63
2022-12-06T00:37:06.451Z,10.97
2022-12-06T00:42:15.091Z,10.50
2022-12-06T00:47:36.937Z,9.90
2022-12-06T00:53:00.014Z,10.27
2022-12-06T00:58:29.432Z,10.13
2022-12-06T01:03:42.716Z,11.10
2022-12-06T01:08:56.842Z,12.33
2022-12-06T01:14:10.907Z,10.87
2022-12-06T01:19:23.547Z,10.40
2022-12-06T01:24:30.023Z,10.80
2022-12-06T01:29:28.262Z,8.87
2022-12-06T01:34:27.672Z,11.90
2022-12-06T01:39:25.708Z,11.23
2022-12-06T01:44:45.250Z,11.07
2022-12-06T01:49:48.660Z,9.93
2022-12-06T01:54:47.120Z,11.23
2022-12-06T01:59:45.731Z,9.70
2022-12-06T02:04:45.728Z,9.90
2022-12-06T02:09:44.612Z,10.00
2022-12-06T02:14:46.585Z,10.13
2022-12-06T02:19:59.440Z,9.50
2022-12-06T02:25:11.520Z,9.70
2022-12-06T02:30:18.445Z,9.50
2022-12-06T02:35:29.106Z,9.33
2022-12-06T02:40:32.366Z,11.10
2022-12-06T02:45:34.886Z,9.13
2022-12-06T02:50:40.146Z,8.97
2022-12-06T02:55:38.489Z,10.00
2022-12-06T03:00:39.461Z,10.53
2022-12-06T03:05:45.486Z,9.03
2022-12-06T03:10:49.286Z,10.07
2022-12-06T03:15:52.614Z,8.73
2022-12-06T03:20:57.335Z,9.93
2022-12-06T03:25:59.642Z,10.30
2022-12-06T03:31:02.301Z,9.77
2022-12-06T03:36:02.519Z,10.20
2022-12-06T03:41:03.069Z,10.70
2022-12-06T03:46:05.841Z,11.17
2022-12-06T03:51:08.762Z,11.40
2022-12-06T03:56:07.343Z,11.63
2022-12-06T04:01:05.525Z,12.17
2022-12-06T04:06:05.752Z,12.67
2022-12-06T04:11:03.938Z,14.53
2022-12-06T04:16:03.365Z,14.97
2022-12-06T04:21:20.921Z,13.23
2022-12-06T04:26:22.363Z,13.70
2022-12-06T04:31:38.068Z,14.97
2022-12-06T04:36:54.042Z,12.10
2022-12-06T04:42:10.736Z,8.47
2022-12-06T04:47:09.108Z,8.47
2022-12-06T04:52:08.570Z,7.30
2022-12-06T04:57:10.939Z,6.17
2022-12-06T05:02:12.580Z,5.20
2022-12-06T05:07:11.655Z,5.83
2022-12-06T05:12:11.127Z,7.57
2022-12-06T05:17:09.170Z,7.00
2022-12-06T05:22:07.258Z,5.67
2022-12-06T05:27:05.411Z,7.77
2022-12-06T05:32:05.099Z,6.27
2022-12-06T05:37:03.201Z,6.27
2022-12-06T05:42:01.276Z,6.13
2022-12-06T05:46:59.302Z,6.63
2022-12-06T05:52:03.663Z,6.43
2022-12-06T05:57:02.230Z,5.63
2022-12-06T06:02:00.512Z,6.60
2022-12-06T06:07:00.389Z,6.60
2022-12-06T06:11:58.419Z,5.50
2022-12-06T06:16:56.468Z,5.47
2022-12-06T06:21:54.530Z,6.10
2022-12-06T06:26:54.101Z,4.80
2022-12-06T06:31:52.218Z,6.00
2022-12-06T06:36:50.245Z,6.03
2022-12-06T06:41:48.595Z,6.30
2022-12-06T06:46:48.037Z,7.20
2022-12-06T06:51:46.380Z,7.00
2022-12-06T06:56:44.388Z,6.50
2022-12-06T07:01:42.498Z,6.70
2022-12-06T07:06:42.562Z,6.20
2022-12-06T07:11:40.776Z,6.77
2022-12-06T07:16:38.918Z,6.43
2022-12-06T07:21:37.227Z,6.40
2022-12-06T07:26:37.225Z,7.13
2022-12-06T07:31:35.451Z,5.90
2022-12-06T07:36:34.103Z,6.50
2022-12-06T07:41:49.799Z,5.83
2022-12-06T07:47:15.554Z,5.23
2022-12-06T07:52:13.592Z,5.40
2022-12-06T07:57:11.630Z,5.33
2022-12-06T08:02:19.772Z,5.40
2022-12-06T08:07:17.817Z,4.10
2022-12-06T08:12:16.258Z,5.23
2022-12-06T08:17:14.656Z,5.00
2022-12-06T08:22:14.047Z,4.73
2022-12-06T08:27:12.242Z,5.47
2022-12-06T08:32:10.288Z,5.60
2022-12-06T08:37:08.335Z,5.30
2022-12-06T08:42:08.109Z,5.73
2022-12-06T08:47:06.306Z,5.50
2022-12-06T08:52:04.767Z,5.50
2022-12-06T08:57:02.865Z,6.17
2022-12-06T09:02:02.369Z,5.13
2022-12-06T09:07:00.461Z,4.93
2022-12-06T09:11:58.518Z,5.30
2022-12-06T09:16:56.526Z,5.20
2022-12-06T09:21:56.028Z,4.30
2022-12-06T09:26:54.063Z,4.80
2022-12-06T09:31:53.952Z,5.70
2022-12-06T09:36:56.743Z,4.97
2022-12-06T09:42:20.299Z,4.40
2022-12-06T09:47:24.866Z,4.23
2022-12-06T09:52:49.287Z,4.27
2022-12-06T09:57:54.601Z,3.30
2022-12-06T10:03:21.047Z,3.20
2022-12-06T10:08:30.016Z,3.77
2022-12-06T10:13:51.407Z,3.40
2022-12-06T10:19:03.561Z,4.10
2022-12-06T10:24:15.634Z,4.10
2022-12-06T10:29:25.946Z,4.03
2022-12-06T10:34:49.602Z,4.40
2022-12-06T10:39:53.532Z,4.33
2022-12-06T10:44:57.700Z,3.47
2022-12-06T10:50:03.775Z,3.53
2022-12-06T10:55:16.366Z,3.80
2022-12-06T11:00:17.684Z,4.60
2022-12-06T11:05:20.496Z,4.10
2022-12-06T11:10:26.861Z,4.13
2022-12-06T11:15:28.876Z,3.23
2022-12-06T11:20:29.975Z,3.30
2022-12-06T11:25:37.827Z,5.13
2022-12-06T11:30:36.059Z,3.87
2022-12-06T11:35:34.241Z,5.17
2022-12-06T11:40:36.894Z,4.93
2022-12-06T11:45:37.983Z,5.30
2022-12-06T11:50:37.774Z,4.50
2022-12-06T11:55:43.177Z,5.20
2022-12-06T12:01:01.684Z,4.60
2022-12-06T12:06:18.140Z,4.80
2022-12-06T12:11:22.162Z,4.80
2022-12-06T12:16:24.399Z,4.23
2022-12-06T12:21:33.580Z,4.57
2022-12-06T12:26:41.597Z,4.90
2022-12-06T12:31:51.945Z,4.50
2022-12-06T12:36:52.873Z,4.30
2022-12-06T12:41:52.336Z,4.00
2022-12-06T12:46:55.088Z,4.53
2022-12-06T12:51:53.380Z,4.70
2022-12-06T12:56:53.315Z,4.03
2022-12-06T13:01:56.870Z,3.70
2022-12-06T13:06:59.130Z,4.50
2022-12-06T13:12:03.971Z,3.93
2022-12-06T13:17:07.772Z,3.63
2022-12-06T13:22:07.926Z,4.23
2022-12-06T13:27:13.714Z,4.20
2022-12-06T13:32:17.114Z,4.13
2022-12-06T13:37:35.982Z,3.50
2022-12-06T13:42:47.614Z,3.40
2022-12-06T13:47:51.840Z,4.20
2022-12-06T13:53:02.418Z,5.20
2022-12-06T13:58:40.641Z,5.77
2022-12-06T14:03:42.121Z,4.80
2022-12-06T14:08:42.145Z,5.40
2022-12-06T14:13:42.542Z,5.20
2022-12-06T14:18:43.019Z,5.40
2022-12-06T14:23:48.071Z,4.87
2022-12-06T14:28:48.047Z,5.93
2022-12-06T14:33:46.200Z,5.47
2022-12-06T14:38:51.175Z,5.97
2022-12-06T14:43:50.635Z,5.07
2022-12-06T14:49:14.902Z,5.70
2022-12-06T14:54:36.324Z,5.50
2022-12-06T15:04:53.878Z,4.43
2022-12-06T15:09:51.927Z,4.37
2022-12-06T15:14:51.343Z,4.73
2022-12-06T15:19:51.097Z,4.60
2022-12-06T15:24:50.542Z,4.60
2022-12-06T15:29:48.670Z,5.23
2022-12-06T15:34:48.454Z,4.37
2022-12-06T15:39:46.553Z,4.37
2022-12-06T15:44:49.103Z,4.47
2022-12-06T15:49:59.951Z,4.90
2022-12-06T15:54:58.617Z,5.00
2022-12-06T15:59:56.842Z,5.20
2022-12-06T16:04:54.871Z,4.27
2022-12-06T16:09:54.308Z,4.50
2022-12-06T16:14:52.339Z,5.50
2022-12-06T16:20:07.949Z,6.00
2022-12-06T16:25:07.803Z,4.83
2022-12-06T16:30:06.949Z,5.07
2022-12-06T16:35:05.382Z,5.00
2022-12-06T16:40:03.428Z,5.10
2022-12-06T16:45:03.222Z,4.93
2022-12-06T16:50:01.717Z,5.20
2022-12-06T16:55:00.231Z,4.93
2022-12-06T16:59:58.514Z,4.20
2022-12-06T17:05:00.860Z,4.20
2022-12-06T17:09:59.684Z,4.50
2022-12-06T17:14:57.834Z,3.40
2022-12-06T17:19:57.294Z,3.90
2022-12-06T17:24:55.369Z,3.20
2022-12-06T17:29:53.461Z,3.60
2022-12-06T17:34:51.706Z,3.33
2022-12-06T17:39:51.135Z,3.30
2022-12-06T17:44:50.306Z,3.80
2022-12-06T17:49:48.587Z,3.97
2022-12-06T17:54:46.652Z,3.93
2022-12-06T17:59:47.515Z,4.40
2022-12-06T18:04:47.144Z,4.67
2022-12-06T18:09:45.971Z,5.03
2022-12-06T18:14:46.109Z,5.60
2022-12-06T18:19:46.718Z,6.10
2022-12-06T18:24:45.368Z,6.00
2022-12-06T18:29:44.912Z,7.50
2022-12-06T18:34:43.022Z,5.90
2022-12-06T18:39:41.082Z,7.10
2022-12-06T18:44:39.158Z,7.57
2022-12-06T18:49:38.553Z,7.57
2022-12-06T18:54:36.676Z,7.80
2022-12-06T18:59:37.591Z,8.40
2022-12-06T19:04:35.644Z,8.00
2022-12-06T19:09:35.064Z,8.40
2022-12-06T19:14:33.168Z,8.50
2022-12-06T19:19:31.320Z,7.40
2022-12-06T19:24:29.899Z,8.30
2022-12-06T19:29:29.686Z,8.30
2022-12-06T19:34:30.089Z,7.63
2022-12-06T19:39:28.124Z,8.53
2022-12-06T19:44:29.714Z,7.83
2022-12-06T19:49:28.906Z,8.70
2022-12-06T19:54:29.013Z,8.00
2022-12-06T19:59:31.789Z,8.50
2022-12-06T20:04:32.019Z,9.33
2022-12-06T20:09:31.317Z,8.07
2022-12-06T20:14:34.475Z,8.80
2022-12-06T20:19:33.524Z,8.33
2022-12-06T20:24:31.741Z,7.70
2022-12-06T20:29:32.530Z,7.43
2022-12-06T20:34:34.058Z,8.70
2022-12-06T20:39:35.020Z,7.83
2022-12-06T20:44:35.082Z,8.27
2022-12-06T20:49:33.145Z,6.90
2022-12-06T20:54:31.366Z,6.77
2022-12-06T20:59:29.583Z,6.27
2022-12-06T21:04:29.223Z,6.47
2022-12-06T21:09:27.287Z,5.30
2022-12-06T21:14:25.361Z,4.77
2022-12-06T21:19:23.418Z,3.57
2022-12-06T21:24:23.529Z,2.83
2022-12-06T21:29:30.623Z,3.23
2022-12-06T21:34:29.380Z,2.23
2022-12-06T21:39:28.890Z,2.60
2022-12-06T21:44:26.930Z,2.10
2022-12-06T21:49:25.170Z,1.83
2022-12-06T21:54:23.307Z,1.67
2022-12-06T21:59:23.925Z,1.80
2022-12-06T22:04:22.075Z,1.80
2022-12-06T22:09:20.138Z,1.90
2022-12-06T22:14:18.449Z,2.50
2022-12-06T22:19:17.918Z,3.73
2022-12-06T22:24:16.037Z,4.30
2022-12-06T22:29:14.676Z,3.40
2022-12-06T22:34:12.697Z,4.00
2022-12-06T22:39:12.539Z,4.97
2022-12-06T22:44:12.119Z,4.87
2022-12-06T22:49:17.720Z,4.70
2022-12-06T22:54:17.577Z,5.90
2022-12-06T22:59:16.855Z,5.60
2022-12-06T23:04:15.013Z,7.83
2022-12-06T23:09:15.875Z,7.00
2022-12-06T23:14:15.304Z,6.00
2022-12-06T23:19:13.473Z,6.93
2022-12-06T23:24:13.566Z,6.20
2022-12-06T23:29:12.706Z,5.50
2022-12-06T23:34:14.835Z,6.33
2022-12-06T23:39:13.139Z,6.47
2022-12-06T23:44:13.395Z,6.43
2022-12-06T23:49:16.860Z,6.37
2022-12-06T23:54:16.241Z,6.63
2022-12-06T23:59:16.588Z,6.87
